Ayers, Illinois
Current Conditions -  °F | °C
As of 6:55 AM on Saturday 25 Oct 2014 (Local Time) from K3LF Reporting Station
Haze Haze  
Wind Chill: 12°   Ceiling: 12000
Heat Index: 12°   Visibility: 3mi
Dew Point: 11°   Wind: 0mph
Humidity: 94%   Direction: NA
Pressure: 30"   Gusts: NA
Location:  38.895°N, 89.397°W
Report Text: K3LF 251155Z AUTO 00000KT 3SM BR SCT019 SCT090 BKN120 12/11 A3000 RMK AO2 T01180109 10141 20113
Loading
Personal Weather Stations






























Interactive Weather Map
Tropical Storm Tracking
New forecast layout! Learn more

10-Day Weather Forecast

Advertisements
Track Severe Weather on mobile